Portada
METAR-TAF:

METAR-TAF

Aeroports :

Mönchengladbach, Alemanya

latitud: 51-13-49N, longitud: 006-30-16E, altitud: 38 m

Observació

L'informe es va fer fa 47 minuts, a les 11:50 UTC
Vent 9 kt del Sud-Oest, variant entre Sud i Oest/Nord-Oest
Temperatura 21°C
Humitat 64%
Pressió 1014 hPa
Visibilitat 10 km o més
Núvols disperses a una alçada de 3600 ft

METAR: EDLN 041150Z 22009KT 180V290 9999 SCT036 21/14 Q1014

Hora: 14:37 (12:37 UTC)

Pronòstic

L'informe es va fer fa 1 hora i 37 minuts, a les 11:00 UTC
Pronòstic vàlid del 04 a les 12 UTC al 04 a les 21 UTC
Vent 12 kt del Oest/Sud-Oest
Visibilitat 10 km o més
Cel ennuvolat a una alçada de 3500 ft

TAF: EDLN 041100Z 0412/0421 24012KT 9999 BKN035

Observacions i pronòstics meteorològics de més de 4000 aeroports (METAR i TAF).

Les estacions disponibles són els punts grocs i vermells al mapa.

Posi el ratolí al punt desitjat per veure el nom de l'estació.

Feu clic per veure les observacions i els pronòstics meteorològics.

Per canviar el mapa: feu clic els botons verds amb una creu de color negre per apropar; al botó verd amb un guió per allunyar la imatge; o en les fletxes verdes per a mapes adjacents.


METAR-TAF: